createdAt,value
2023-03-16T00:00:16.575Z,57.16
2023-03-16T00:02:20.203Z,57.34
2023-03-16T00:04:21.843Z,57.81
2023-03-16T00:06:25.886Z,57.79
2023-03-16T00:08:27.488Z,57.65
2023-03-16T00:10:29.256Z,57.33
2023-03-16T00:12:34.558Z,57.35
2023-03-16T00:14:37.952Z,57.67
2023-03-16T00:16:39.562Z,57.72
2023-03-16T00:18:44.527Z,57.55
2023-03-16T00:20:52.809Z,57.75
2023-03-16T00:22:54.296Z,57.67
2023-03-16T00:24:56.453Z,57.56
2023-03-16T00:26:57.923Z,57.51
2023-03-16T00:28:59.470Z,57.42
2023-03-16T00:31:05.513Z,58.02
2023-03-16T00:33:07.240Z,57.49
2023-03-16T00:35:09.727Z,57.43
2023-03-16T00:37:15.307Z,57.61
2023-03-16T00:39:16.829Z,57.79
2023-03-16T00:41:18.283Z,57.51
2023-03-16T00:43:29.404Z,57.51
2023-03-16T00:45:32.465Z,58.01
2023-03-16T00:47:36.256Z,57.73
2023-03-16T00:49:43.328Z,58.05
2023-03-16T00:51:46.394Z,57.89
2023-03-16T00:53:52.116Z,58.11
2023-03-16T00:55:53.560Z,57.88
2023-03-16T00:57:55.160Z,58.49
2023-03-16T00:59:56.686Z,58.48
2023-03-16T01:01:58.321Z,58.59
2023-03-16T01:04:01.607Z,58.89
2023-03-16T01:06:05.868Z,58.66
2023-03-16T01:08:08.920Z,58.80
2023-03-16T01:10:11.134Z,58.35
2023-03-16T01:12:16.202Z,58.57
2023-03-16T01:14:20.090Z,58.80
2023-03-16T01:16:24.697Z,58.60
2023-03-16T01:18:28.245Z,58.69
2023-03-16T01:20:30.059Z,58.72
2023-03-16T01:22:33.725Z,58.97
2023-03-16T01:24:36.780Z,58.70
2023-03-16T01:26:38.325Z,59.30
2023-03-16T01:28:40.140Z,58.86
2023-03-16T01:30:46.265Z,58.90
2023-03-16T01:32:51.672Z,58.89
2023-03-16T01:34:53.658Z,58.87
2023-03-16T01:36:56.928Z,59.29
2023-03-16T01:39:24.614Z,59.54
2023-03-16T01:41:29.922Z,59.30
2023-03-16T01:43:33.388Z,59.40
2023-03-16T01:46:00.270Z,59.90
2023-03-16T01:48:01.922Z,59.53
2023-03-16T01:50:04.881Z,59.33
2023-03-16T01:52:14.287Z,59.45
2023-03-16T01:54:21.983Z,59.49
2023-03-16T01:56:31.082Z,59.85
2023-03-16T01:58:32.911Z,59.58
2023-03-16T02:00:37.010Z,59.84
2023-03-16T02:02:54.898Z,59.44
2023-03-16T02:05:33.301Z,60.23
2023-03-16T02:07:42.405Z,60.29
2023-03-16T02:09:47.055Z,60.13
2023-03-16T02:11:49.280Z,60.08
2023-03-16T02:13:52.693Z,59.97
2023-03-16T02:15:55.496Z,60.02
2023-03-16T02:18:01.256Z,60.23
2023-03-16T02:20:32.277Z,60.44
2023-03-16T02:22:36.223Z,60.08
2023-03-16T02:24:38.426Z,59.81
2023-03-16T02:27:04.557Z,59.87
2023-03-16T02:29:43.881Z,59.69
2023-03-16T02:31:46.926Z,59.39
2023-03-16T02:33:51.017Z,59.93
2023-03-16T02:35:54.179Z,59.92
2023-03-16T02:37:56.448Z,59.88
2023-03-16T02:40:20.797Z,60.17
2023-03-16T02:42:26.387Z,59.79
2023-03-16T02:44:35.171Z,59.54
2023-03-16T02:46:38.783Z,59.68
2023-03-16T02:48:53.233Z,59.67
2023-03-16T02:50:55.039Z,59.56
2023-03-16T02:52:56.968Z,59.41
2023-03-16T02:54:58.681Z,59.45
2023-03-16T02:57:00.264Z,59.48
2023-03-16T02:59:06.276Z,59.57
2023-03-16T03:01:08.565Z,59.14
2023-03-16T03:03:11.044Z,59.61
2023-03-16T03:05:13.403Z,59.36
2023-03-16T03:07:16.066Z,59.07
2023-03-16T03:09:34.853Z,58.75
2023-03-16T03:11:39.166Z,59.06
2023-03-16T03:13:43.754Z,58.97
2023-03-16T03:15:49.967Z,59.17
2023-03-16T03:17:51.767Z,59.20
2023-03-16T03:19:53.589Z,58.54
2023-03-16T03:21:58.078Z,58.90
2023-03-16T03:23:59.572Z,59.32
2023-03-16T03:26:04.939Z,58.61
2023-03-16T03:28:08.311Z,58.58
2023-03-16T03:30:12.798Z,58.77
2023-03-16T03:32:14.355Z,58.74
2023-03-16T03:34:16.076Z,59.25
2023-03-16T03:36:19.680Z,58.77
2023-03-16T03:38:21.194Z,59.20
2023-03-16T03:40:23.669Z,59.34
2023-03-16T03:42:31.920Z,59.02
2023-03-16T03:44:40.465Z,59.00
2023-03-16T03:46:45.191Z,59.44
2023-03-16T03:48:46.882Z,59.40
2023-03-16T03:50:54.566Z,59.73
2023-03-16T03:53:12.437Z,59.53
2023-03-16T03:55:33.902Z,59.36
2023-03-16T03:57:36.368Z,60.06
2023-03-16T03:59:43.536Z,59.59
2023-03-16T04:02:01.046Z,59.74
2023-03-16T04:04:12.400Z,59.73
2023-03-16T04:06:13.870Z,59.61
2023-03-16T04:08:15.708Z,59.83
2023-03-16T04:10:17.774Z,59.85
2023-03-16T04:12:19.524Z,59.54
2023-03-16T04:14:23.213Z,59.85
2023-03-16T04:16:27.264Z,59.30
2023-03-16T04:18:38.578Z,60.09
2023-03-16T04:20:42.065Z,60.26
2023-03-16T04:22:47.521Z,59.79
2023-03-16T04:24:49.839Z,60.12
2023-03-16T04:26:54.466Z,60.14
2023-03-16T04:28:56.706Z,60.49
2023-03-16T04:31:07.239Z,59.98
2023-03-16T04:33:14.877Z,59.82
2023-03-16T04:35:17.566Z,59.77
2023-03-16T04:37:23.804Z,60.44
2023-03-16T04:39:27.858Z,60.12
2023-03-16T04:41:29.742Z,59.92
2023-03-16T04:43:36.769Z,60.02
2023-03-16T04:45:45.054Z,59.66
2023-03-16T04:47:47.912Z,59.04
2023-03-16T04:49:51.941Z,59.46
2023-03-16T04:51:53.601Z,59.83
2023-03-16T04:53:56.291Z,59.85
2023-03-16T04:56:04.433Z,59.98
2023-03-16T04:58:06.707Z,59.65
2023-03-16T05:00:20.621Z,59.54
2023-03-16T05:02:36.124Z,59.26
2023-03-16T05:04:37.679Z,60.02
2023-03-16T05:06:40.119Z,59.87
2023-03-16T05:08:44.662Z,59.33
2023-03-16T05:10:48.245Z,59.66
2023-03-16T05:12:50.583Z,59.52
2023-03-16T05:14:53.157Z,59.25
2023-03-16T05:17:05.140Z,59.11
2023-03-16T05:19:07.146Z,59.54
2023-03-16T05:21:10.185Z,59.63
2023-03-16T05:23:35.322Z,59.45
2023-03-16T05:25:40.285Z,59.01
2023-03-16T05:27:48.449Z,59.42
2023-03-16T05:29:56.045Z,59.34
2023-03-16T05:31:59.548Z,59.30
2023-03-16T05:34:04.056Z,59.48
2023-03-16T05:36:06.356Z,59.03
2023-03-16T05:38:09.891Z,59.43
2023-03-16T05:40:18.539Z,58.80
2023-03-16T05:42:27.387Z,58.22
2023-03-16T05:44:34.131Z,58.53
2023-03-16T05:46:50.002Z,58.59
2023-03-16T05:48:51.927Z,58.62
2023-03-16T05:50:58.311Z,58.36
2023-03-16T05:53:04.274Z,57.77
2023-03-16T05:55:08.305Z,57.83
2023-03-16T05:57:14.243Z,57.90
2023-03-16T05:59:18.291Z,57.59
2023-03-16T06:01:25.496Z,58.02
2023-03-16T06:03:34.409Z,57.78
2023-03-16T06:05:36.167Z,58.15
2023-03-16T06:07:38.499Z,57.90
2023-03-16T06:09:40.467Z,57.62
2023-03-16T06:11:47.978Z,57.83
2023-03-16T06:13:51.426Z,58.20
2023-03-16T06:15:53.109Z,57.68
2023-03-16T06:17:56.602Z,58.05
2023-03-16T06:19:58.168Z,58.40
2023-03-16T06:21:59.791Z,58.25
2023-03-16T06:24:07.772Z,57.99
2023-03-16T06:26:09.337Z,58.07
2023-03-16T06:28:17.163Z,57.99
2023-03-16T06:30:24.196Z,58.71
2023-03-16T06:32:26.342Z,58.22
2023-03-16T06:34:30.517Z,58.35
2023-03-16T06:36:32.620Z,58.74
2023-03-16T06:38:36.573Z,58.51
2023-03-16T06:40:42.968Z,58.49
2023-03-16T06:42:46.802Z,58.86
2023-03-16T06:44:52.801Z,58.60
2023-03-16T06:46:54.600Z,59.06
2023-03-16T06:48:56.190Z,59.28
2023-03-16T06:50:58.166Z,58.96
2023-03-16T06:53:05.400Z,59.20
2023-03-16T06:55:08.918Z,59.10
2023-03-16T06:57:14.086Z,58.91
2023-03-16T06:59:15.771Z,59.29
2023-03-16T07:01:17.533Z,59.49
2023-03-16T07:03:19.394Z,59.39
2023-03-16T07:05:26.686Z,59.02
2023-03-16T07:07:28.321Z,59.28
2023-03-16T07:09:29.980Z,58.78
2023-03-16T07:11:32.751Z,58.51
2023-03-16T07:13:35.589Z,58.71
2023-03-16T07:15:37.499Z,58.67
2023-03-16T07:17:42.690Z,58.58
2023-03-16T07:19:44.762Z,57.74
2023-03-16T07:21:48.981Z,58.06
2023-03-16T07:23:58.101Z,58.21
2023-03-16T07:26:04.763Z,57.82
2023-03-16T07:28:08.514Z,57.71
2023-03-16T07:30:15.498Z,56.96
2023-03-16T07:32:20.871Z,56.81
2023-03-16T07:34:23.777Z,56.78
2023-03-16T07:36:29.970Z,56.44
2023-03-16T07:38:37.546Z,56.18
2023-03-16T07:40:40.397Z,55.76
2023-03-16T07:42:48.250Z,55.21
2023-03-16T07:44:59.974Z,54.94
2023-03-16T07:47:01.746Z,54.79
2023-03-16T07:49:05.262Z,54.74
2023-03-16T07:51:08.489Z,54.37
2023-03-16T07:53:12.374Z,53.99
2023-03-16T07:55:19.758Z,54.14
2023-03-16T07:57:24.157Z,54.10
2023-03-16T07:59:25.717Z,54.29
2023-03-16T08:01:27.247Z,54.31
2023-03-16T08:03:30.238Z,54.24
2023-03-16T08:05:37.056Z,54.23
2023-03-16T08:07:44.843Z,53.64
2023-03-16T08:09:53.415Z,53.25
2023-03-16T08:12:05.946Z,53.03
2023-03-16T08:14:09.410Z,52.59
2023-03-16T08:16:36.616Z,52.21
2023-03-16T08:18:39.803Z,52.00
2023-03-16T08:20:42.101Z,51.38
2023-03-16T08:22:47.087Z,51.40
2023-03-16T08:24:51.999Z,50.82
2023-03-16T08:26:54.199Z,50.58
2023-03-16T08:28:55.855Z,50.73
2023-03-16T08:31:00.440Z,50.45
2023-03-16T08:33:26.087Z,50.45
2023-03-16T08:35:30.501Z,50.21
2023-03-16T08:37:32.375Z,49.86
2023-03-16T08:39:35.659Z,49.97
2023-03-16T08:41:43.495Z,50.18
2023-03-16T08:43:56.133Z,50.37
2023-03-16T08:45:59.058Z,50.53
2023-03-16T08:48:07.434Z,50.74
2023-03-16T08:50:12.413Z,50.62
2023-03-16T08:52:23.195Z,51.05
2023-03-16T08:54:25.836Z,50.70
2023-03-16T08:56:28.946Z,50.71
2023-03-16T08:58:35.326Z,50.65
2023-03-16T09:00:37.561Z,50.84
2023-03-16T09:02:43.064Z,50.59
2023-03-16T09:04:46.070Z,50.55
2023-03-16T09:07:05.924Z,50.35
2023-03-16T09:09:09.907Z,50.14
2023-03-16T09:11:15.392Z,49.99
2023-03-16T09:13:17.637Z,49.88
2023-03-16T09:15:20.978Z,49.95
2023-03-16T09:17:22.731Z,50.05
2023-03-16T09:19:25.240Z,49.65
2023-03-16T09:21:26.688Z,49.33
2023-03-16T09:23:29.214Z,49.07
2023-03-16T09:25:32.438Z,48.93
2023-03-16T09:27:35.069Z,48.90
2023-03-16T09:29:41.259Z,48.64
2023-03-16T09:31:43.190Z,48.36
2023-03-16T09:33:44.992Z,47.97
2023-03-16T09:35:46.993Z,47.75
2023-03-16T09:38:05.065Z,47.37
2023-03-16T09:40:12.076Z,47.41
2023-03-16T09:42:19.091Z,47.04
2023-03-16T09:44:46.756Z,46.14
2023-03-16T09:46:51.247Z,46.51
2023-03-16T09:48:54.314Z,46.63
2023-03-16T09:50:58.468Z,46.55
2023-03-16T09:53:29.684Z,45.58
2023-03-16T09:55:33.706Z,45.49
2023-03-16T09:57:44.582Z,44.74
2023-03-16T09:59:46.132Z,44.86
2023-03-16T10:01:57.158Z,44.45
2023-03-16T10:04:11.341Z,44.32
2023-03-16T10:06:14.107Z,44.54
2023-03-16T10:08:26.105Z,44.53
2023-03-16T10:10:36.788Z,44.84
2023-03-16T10:12:44.120Z,44.89
2023-03-16T10:15:09.703Z,44.62
2023-03-16T10:17:21.976Z,44.38
2023-03-16T10:19:39.197Z,45.05
2023-03-16T10:21:44.891Z,45.50
2023-03-16T10:23:48.528Z,45.05
2023-03-16T10:25:54.840Z,45.14
2023-03-16T10:27:57.343Z,45.45
2023-03-16T10:30:01.575Z,45.23
2023-03-16T10:32:13.337Z,45.11
2023-03-16T10:34:15.299Z,45.15
2023-03-16T10:36:33.533Z,44.37
2023-03-16T10:38:50.508Z,44.48
2023-03-16T10:40:53.094Z,44.46
2023-03-16T10:42:54.964Z,44.69
2023-03-16T10:44:58.340Z,44.70
2023-03-16T10:47:25.171Z,44.41
2023-03-16T10:49:29.122Z,44.38
2023-03-16T10:51:34.771Z,44.24
2023-03-16T10:53:40.628Z,43.46
2023-03-16T10:55:44.970Z,42.89
2023-03-16T10:57:53.706Z,41.58
2023-03-16T10:59:59.646Z,42.90
2023-03-16T11:02:23.792Z,41.43
2023-03-16T11:04:25.639Z,42.33
2023-03-16T11:06:33.332Z,42.19
2023-03-16T11:08:38.887Z,42.31
2023-03-16T11:10:55.233Z,42.26
2023-03-16T11:13:11.333Z,41.09
2023-03-16T11:15:25.254Z,41.95
2023-03-16T11:17:36.371Z,41.54
2023-03-16T11:20:01.799Z,41.49
2023-03-16T11:22:17.468Z,39.17
2023-03-16T11:24:24.618Z,40.08
2023-03-16T11:26:34.170Z,40.39
2023-03-16T11:28:40.049Z,40.32
2023-03-16T11:31:11.718Z,40.76
2023-03-16T11:33:15.488Z,41.14
2023-03-16T11:35:20.529Z,41.12
2023-03-16T11:37:39.478Z,40.72
2023-03-16T11:40:09.462Z,39.79
2023-03-16T11:42:29.122Z,39.91
2023-03-16T11:45:10.039Z,39.92
2023-03-16T11:47:29.812Z,39.98
2023-03-16T11:49:52.876Z,40.65
2023-03-16T11:52:17.225Z,39.02
2023-03-16T11:54:50.229Z,40.11
2023-03-16T11:57:06.921Z,40.49
2023-03-16T11:59:52.029Z,39.22
2023-03-16T12:02:10.103Z,39.34
2023-03-16T12:04:20.693Z,39.92
2023-03-16T12:07:01.023Z,38.50
2023-03-16T12:09:22.913Z,39.49
2023-03-16T12:11:35.654Z,39.64
2023-03-16T12:14:18.953Z,38.66
2023-03-16T12:16:39.109Z,38.62
2023-03-16T12:19:13.773Z,38.94
2023-03-16T12:21:21.851Z,38.99
2023-03-16T12:23:32.106Z,38.68
2023-03-16T12:25:39.508Z,39.08
2023-03-16T12:27:42.862Z,38.52
2023-03-16T12:29:56.898Z,38.35
2023-03-16T12:32:22.562Z,38.87
2023-03-16T12:34:44.079Z,38.68
2023-03-16T12:37:07.390Z,38.61
2023-03-16T12:39:18.688Z,37.99
2023-03-16T12:41:52.469Z,38.12
2023-03-16T12:44:07.512Z,38.27
2023-03-16T12:46:14.461Z,39.06
2023-03-16T12:48:28.335Z,38.01
2023-03-16T12:50:30.178Z,38.90
2023-03-16T12:52:43.099Z,38.23
2023-03-16T12:55:07.538Z,39.08
2023-03-16T12:57:15.601Z,39.25
2023-03-16T12:59:22.768Z,38.88
2023-03-16T13:01:54.526Z,38.63
2023-03-16T13:04:10.794Z,38.77
2023-03-16T13:06:23.538Z,38.84
2023-03-16T13:08:25.796Z,39.11
2023-03-16T13:10:31.376Z,38.62
2023-03-16T13:12:38.427Z,38.90
2023-03-16T13:14:43.192Z,38.67
2023-03-16T13:16:45.592Z,38.78
2023-03-16T13:18:52.076Z,38.43
2023-03-16T13:21:13.071Z,38.22
2023-03-16T13:23:20.464Z,38.25
2023-03-16T13:25:37.943Z,38.63
2023-03-16T13:27:40.792Z,38.37
2023-03-16T13:29:53.649Z,38.47
2023-03-16T13:31:59.143Z,38.13
2023-03-16T13:34:07.017Z,38.36
2023-03-16T13:36:11.926Z,38.86
2023-03-16T13:38:16.291Z,38.75
2023-03-16T13:40:24.833Z,38.39
2023-03-16T13:42:32.386Z,38.35
2023-03-16T13:44:34.865Z,38.16
2023-03-16T13:46:36.330Z,38.43
2023-03-16T13:48:40.203Z,38.05
2023-03-16T13:50:43.232Z,38.06
2023-03-16T13:53:04.850Z,36.85
2023-03-16T13:55:16.153Z,37.15
2023-03-16T13:57:23.450Z,37.58
2023-03-16T13:59:26.356Z,36.98
2023-03-16T14:01:31.022Z,36.25
2023-03-16T14:03:38.852Z,36.10
2023-03-16T14:05:40.851Z,36.78
2023-03-16T14:07:42.302Z,36.48
2023-03-16T14:09:46.619Z,36.72
2023-03-16T14:11:48.773Z,36.73
2023-03-16T14:13:54.642Z,36.75
2023-03-16T14:15:59.999Z,36.75
2023-03-16T14:18:14.272Z,35.81
2023-03-16T14:20:22.116Z,35.84
2023-03-16T14:22:30.917Z,36.06
2023-03-16T14:24:38.350Z,36.14
2023-03-16T14:26:41.794Z,36.58
2023-03-16T14:29:01.249Z,36.43
2023-03-16T14:31:06.714Z,36.22
2023-03-16T14:33:26.480Z,35.05
2023-03-16T14:35:41.595Z,34.84
2023-03-16T14:37:44.900Z,35.68
2023-03-16T14:39:58.466Z,34.07
2023-03-16T14:42:03.096Z,34.88
2023-03-16T14:44:05.713Z,35.74
2023-03-16T14:46:16.897Z,35.75
2023-03-16T14:48:21.173Z,35.39
2023-03-16T14:50:28.361Z,35.31
2023-03-16T14:52:33.973Z,34.54
2023-03-16T14:54:35.533Z,34.82
2023-03-16T14:56:37.386Z,35.61
2023-03-16T14:58:39.538Z,35.17
2023-03-16T15:00:52.699Z,35.01
2023-03-16T15:03:07.660Z,34.85
2023-03-16T15:05:17.220Z,34.68
2023-03-16T15:07:25.085Z,34.81
2023-03-16T15:09:39.111Z,34.21
2023-03-16T15:11:43.238Z,35.08
2023-03-16T15:13:46.608Z,34.73
2023-03-16T15:15:48.584Z,34.94
2023-03-16T15:17:53.668Z,34.92
2023-03-16T15:19:55.553Z,35.04
2023-03-16T15:21:58.874Z,35.12
2023-03-16T15:24:00.511Z,34.95
2023-03-16T15:26:02.919Z,34.52
2023-03-16T15:28:11.767Z,34.58
2023-03-16T15:30:26.024Z,34.51
2023-03-16T15:32:27.609Z,35.17
2023-03-16T15:34:31.872Z,34.81
2023-03-16T15:36:33.541Z,34.51
2023-03-16T15:38:39.664Z,34.18
2023-03-16T15:40:42.933Z,34.36
2023-03-16T15:42:46.802Z,34.63
2023-03-16T15:44:48.407Z,34.36
2023-03-16T15:46:50.222Z,34.63
2023-03-16T15:48:51.664Z,34.76
2023-03-16T15:50:57.680Z,34.68
2023-03-16T15:53:09.031Z,34.71
2023-03-16T15:55:20.866Z,34.93
2023-03-16T15:57:22.752Z,35.31
2023-03-16T15:59:24.926Z,35.35
2023-03-16T16:01:35.784Z,35.15
2023-03-16T16:03:37.399Z,35.51
2023-03-16T16:05:39.392Z,35.36
2023-03-16T16:07:41.459Z,35.57
2023-03-16T16:09:43.223Z,35.52
2023-03-16T16:11:47.130Z,35.57
2023-03-16T16:13:49.076Z,35.77
2023-03-16T16:15:50.551Z,35.60
2023-03-16T16:18:19.158Z,35.72
2023-03-16T16:20:27.211Z,35.63
2023-03-16T16:22:28.960Z,35.81
2023-03-16T16:24:30.498Z,35.97
2023-03-16T16:29:00.838Z,36.17
2023-03-16T16:31:03.837Z,36.18
2023-03-16T16:33:21.415Z,35.54
2023-03-16T16:35:28.716Z,35.74
2023-03-16T16:37:30.397Z,35.94
2023-03-16T16:39:33.151Z,35.96
2023-03-16T16:41:36.470Z,36.08
2023-03-16T16:43:42.775Z,35.71
2023-03-16T16:45:44.429Z,36.39
2023-03-16T16:47:48.065Z,36.21
2023-03-16T16:49:51.073Z,36.10
2023-03-16T16:51:53.242Z,36.21
2023-03-16T16:53:59.499Z,36.29
2023-03-16T16:56:02.130Z,36.01
2023-03-16T16:58:07.746Z,36.04
2023-03-16T17:00:23.756Z,36.30
2023-03-16T17:02:30.413Z,36.49
2023-03-16T17:04:32.170Z,36.61
2023-03-16T17:06:34.382Z,36.17
2023-03-16T17:08:36.453Z,36.70
2023-03-16T17:10:38.485Z,36.47
2023-03-16T17:12:40.694Z,36.55
2023-03-16T17:14:42.586Z,36.66
2023-03-16T17:16:44.906Z,36.61
2023-03-16T17:18:48.524Z,36.67
2023-03-16T17:20:50.749Z,36.80
2023-03-16T17:23:00.047Z,36.67
2023-03-16T17:25:09.090Z,36.71
2023-03-16T17:27:16.368Z,36.88
2023-03-16T17:29:44.010Z,36.50
2023-03-16T17:32:01.965Z,36.94
2023-03-16T17:34:17.916Z,36.92
2023-03-16T17:36:32.564Z,36.87
2023-03-16T17:38:37.261Z,37.19
2023-03-16T17:40:39.201Z,37.21
2023-03-16T17:42:41.279Z,37.18
2023-03-16T17:44:46.481Z,37.23
2023-03-16T17:46:48.756Z,37.13
2023-03-16T17:48:52.851Z,37.20
2023-03-16T17:50:55.018Z,37.39
2023-03-16T17:52:56.772Z,37.49
2023-03-16T17:54:58.333Z,37.69
2023-03-16T17:57:00.232Z,37.63
2023-03-16T17:59:11.787Z,37.72
2023-03-16T18:01:14.525Z,37.63
2023-03-16T18:03:17.627Z,37.61
2023-03-16T18:05:26.530Z,37.72
2023-03-16T18:07:28.144Z,37.83
2023-03-16T18:09:29.678Z,37.80
2023-03-16T18:11:35.949Z,37.79
2023-03-16T18:13:40.156Z,37.88
2023-03-16T18:15:41.765Z,37.97
2023-03-16T18:17:43.443Z,37.95
2023-03-16T18:19:46.826Z,37.96
2023-03-16T18:21:49.107Z,38.00
2023-03-16T18:23:52.164Z,38.11
2023-03-16T18:26:01.203Z,37.70
2023-03-16T18:28:02.749Z,38.17
2023-03-16T18:30:05.317Z,38.17
2023-03-16T18:32:08.176Z,38.19
2023-03-16T18:34:21.779Z,38.24
2023-03-16T18:36:34.734Z,38.30
2023-03-16T18:38:39.249Z,38.48
2023-03-16T18:40:41.440Z,38.25
2023-03-16T18:42:43.100Z,38.41
2023-03-16T18:44:44.702Z,38.56
2023-03-16T18:46:47.913Z,38.46
2023-03-16T18:48:50.672Z,38.63
2023-03-16T18:50:52.627Z,38.46
2023-03-16T18:52:55.651Z,38.43
2023-03-16T18:54:58.202Z,38.52
2023-03-16T18:57:00.235Z,38.73
2023-03-16T18:59:02.212Z,38.56
2023-03-16T19:01:21.407Z,38.79
2023-03-16T19:03:33.349Z,38.51
2023-03-16T19:05:37.857Z,38.92
2023-03-16T19:07:46.320Z,38.86
2023-03-16T19:09:48.297Z,38.78
2023-03-16T19:11:50.255Z,38.73
2023-03-16T19:13:54.663Z,39.03
2023-03-16T19:15:57.805Z,38.95
2023-03-16T19:17:59.848Z,38.93
2023-03-16T19:20:05.843Z,38.98
2023-03-16T19:22:15.814Z,39.23
2023-03-16T19:24:24.780Z,38.91
2023-03-16T19:26:26.594Z,39.25
2023-03-16T19:28:33.975Z,39.03
2023-03-16T19:30:36.051Z,39.06
2023-03-16T19:32:38.552Z,39.20
2023-03-16T19:34:44.484Z,39.50
2023-03-16T19:36:46.007Z,39.30
2023-03-16T19:38:50.491Z,39.21
2023-03-16T19:40:59.429Z,39.59
2023-03-16T19:43:30.166Z,39.27
2023-03-16T19:45:35.873Z,39.31
2023-03-16T19:47:37.555Z,39.47
2023-03-16T19:49:39.047Z,39.37
2023-03-16T19:51:40.590Z,39.38
2023-03-16T19:53:42.625Z,39.49
2023-03-16T19:55:46.942Z,39.54
2023-03-16T19:57:59.051Z,39.67
2023-03-16T20:00:00.589Z,39.83
2023-03-16T20:02:02.381Z,39.99
2023-03-16T20:04:04.457Z,39.78
2023-03-16T20:06:06.475Z,39.77
2023-03-16T20:08:23.982Z,39.80
2023-03-16T20:10:28.713Z,39.83
2023-03-16T20:12:31.130Z,40.15
2023-03-16T20:14:33.431Z,39.97
2023-03-16T20:16:36.084Z,39.74
2023-03-16T20:18:37.761Z,40.05
2023-03-16T20:20:40.154Z,39.89
2023-03-16T20:22:42.121Z,40.03
2023-03-16T20:24:45.163Z,39.81
2023-03-16T20:26:51.448Z,39.91
2023-03-16T20:28:58.201Z,40.21
2023-03-16T20:31:00.167Z,39.76
2023-03-16T20:33:02.169Z,40.05
2023-03-16T20:35:03.783Z,39.83
2023-03-16T20:37:23.786Z,39.90
2023-03-16T20:39:25.657Z,39.85
2023-03-16T20:41:30.969Z,40.06
2023-03-16T20:43:32.792Z,40.12
2023-03-16T20:45:34.480Z,40.25
2023-03-16T20:47:36.261Z,39.91
2023-03-16T20:49:40.659Z,40.12
2023-03-16T20:51:43.255Z,40.17
2023-03-16T20:53:46.844Z,40.29
2023-03-16T20:55:50.333Z,40.23
2023-03-16T20:57:53.882Z,40.08
2023-03-16T20:59:56.594Z,40.35
2023-03-16T21:01:58.410Z,40.35
2023-03-16T21:04:00.132Z,40.32
2023-03-16T21:06:01.698Z,40.27
2023-03-16T21:08:03.308Z,40.06
2023-03-16T21:10:05.493Z,40.05
2023-03-16T21:12:12.794Z,40.37
2023-03-16T21:14:32.417Z,40.03
2023-03-16T21:16:34.736Z,39.99
2023-03-16T21:18:36.660Z,40.40
2023-03-16T21:20:38.190Z,40.20
2023-03-16T21:22:39.683Z,40.26
2023-03-16T21:24:41.209Z,39.93
2023-03-16T21:26:43.986Z,40.52
2023-03-16T21:28:55.782Z,40.31
2023-03-16T21:30:59.802Z,40.46
2023-03-16T21:33:02.061Z,40.41
2023-03-16T21:35:04.246Z,40.03
2023-03-16T21:37:13.435Z,40.09
2023-03-16T21:39:19.578Z,40.54
2023-03-16T21:41:23.087Z,40.24
2023-03-16T21:43:24.882Z,40.54
2023-03-16T21:45:26.854Z,40.50
2023-03-16T21:47:29.540Z,40.35
2023-03-16T21:49:36.755Z,40.51
2023-03-16T21:51:42.747Z,40.45
2023-03-16T21:53:45.000Z,40.51
2023-03-16T21:55:47.251Z,40.32
2023-03-16T21:57:49.452Z,40.45
2023-03-16T21:59:51.082Z,40.69
2023-03-16T22:02:01.924Z,40.53
2023-03-16T22:04:14.084Z,40.61
2023-03-16T22:06:15.727Z,40.48
2023-03-16T22:08:27.001Z,40.68
2023-03-16T22:10:31.505Z,40.59
2023-03-16T22:12:33.067Z,40.50
2023-03-16T22:14:34.701Z,40.78
2023-03-16T22:16:38.125Z,40.48
2023-03-16T22:18:39.649Z,40.87
2023-03-16T22:20:41.486Z,41.05
2023-03-16T22:22:43.059Z,40.88
2023-03-16T22:24:44.856Z,41.05
2023-03-16T22:26:48.948Z,40.96
2023-03-16T22:28:53.233Z,40.73
2023-03-16T22:30:56.729Z,40.96
2023-03-16T22:33:05.886Z,40.75
2023-03-16T22:35:41.994Z,40.81
2023-03-16T22:37:43.539Z,41.19
2023-03-16T22:39:48.140Z,40.93
2023-03-16T22:41:51.216Z,41.17
2023-03-16T22:44:02.356Z,40.88
2023-03-16T22:46:04.874Z,41.06
2023-03-16T22:48:22.149Z,41.21
2023-03-16T22:50:27.471Z,40.95
2023-03-16T22:52:32.612Z,41.20
2023-03-16T22:54:34.143Z,40.91
2023-03-16T22:56:36.059Z,41.31
2023-03-16T22:58:42.264Z,41.29
2023-03-16T23:00:44.727Z,41.35
2023-03-16T23:02:46.345Z,41.28
2023-03-16T23:04:52.272Z,41.29
2023-03-16T23:06:53.929Z,41.29
2023-03-16T23:08:56.074Z,41.25
2023-03-16T23:10:57.715Z,40.85
2023-03-16T23:13:00.290Z,41.32
2023-03-16T23:15:02.250Z,41.38
2023-03-16T23:17:03.970Z,41.35
2023-03-16T23:19:25.138Z,41.20
2023-03-16T23:21:28.977Z,41.09
2023-03-16T23:23:30.589Z,41.47
2023-03-16T23:25:32.023Z,41.33
2023-03-16T23:27:33.478Z,41.37
2023-03-16T23:29:35.176Z,41.58
2023-03-16T23:31:36.921Z,41.13
2023-03-16T23:33:39.051Z,41.47
2023-03-16T23:35:47.073Z,41.29
2023-03-16T23:37:49.979Z,41.51
2023-03-16T23:39:51.505Z,41.58
2023-03-16T23:41:53.094Z,41.26
2023-03-16T23:43:54.729Z,41.56
2023-03-16T23:45:56.568Z,41.25
2023-03-16T23:48:01.221Z,41.59
2023-03-16T23:50:03.279Z,41.54
2023-03-16T23:52:05.302Z,41.28
2023-03-16T23:54:23.168Z,41.76
2023-03-16T23:56:26.960Z,41.43
2023-03-16T23:58:28.588Z,41.65
